Petersburg, Indiana
Current Conditions -  °F | °C
As of 6:15 PM on Monday 20 Oct 2014 (Local Time) from KDCY Reporting Station
Clear Clear  
Wind Chill: 64°   Ceiling: Unl
Heat Index: 64°   Visibility: 10mi
Dew Point: 46°   Wind: 10mph
Humidity: 53%   Direction: 320°NW
Pressure: 29.9"   Gusts: NA
Location:  38.49°N, 87.28°W
Report Text: KDCY 202315Z AUTO 32009KT 10SM CLR 18/08 A2990 RMK AO2 T01750079
Loading
Personal Weather Stations






























Interactive Weather Map
Tropical Storm Tracking
New forecast layout! Learn more

10-Day Weather Forecast

Advertisements
Track Severe Weather on mobile